Time;durP1;ratioP1;P1;durP2;ratioP2;P2;SDS_P1;SDS_P2;PMS_P1;PMS_P2;Temp;Humidity;BMP_temperature;BMP_pressure;BME280_temperature;BME280_humidity;BME280_pressure;Samples;Min_cycle;Max_cycle;Signal;HPM_P1;HPM_P2
2022/01/22 00:00:19;;;;;;;18.60;4.10;;;7.20;99.90;;;;;;5053057;28;20040;-70
2022/01/22 00:02:46;;;;;;;21.20;2.95;;;7.20;99.90;;;;;;5053562;28;20048;-69
2022/01/22 00:05:13;;;;;;;16.80;3.55;;;7.10;99.90;;;;;;5036638;28;20056;-69
2022/01/22 00:07:39;;;;;;;27.48;6.72;;;;;;;;;;5053118;28;20102;-70
2022/01/22 00:10:11;;;;;;;27.10;4.68;;;7.20;99.90;;;;;;5053273;28;20049;-73
2022/01/22 00:15:09;;;;;;;22.83;3.67;;;7.30;99.90;;;;;;5053272;28;20044;-69
2022/01/22 00:17:35;;;;;;;23.63;4.10;;;7.10;99.90;;;;;;5053469;28;20046;-69
2022/01/22 00:20:02;;;;;;;20.23;3.10;;;7.10;99.90;;;;;;5052875;28;20076;-74
2022/01/22 00:22:33;;;;;;;24.13;4.72;;;7.30;99.90;;;;;;5053421;28;20413;-70
2022/01/22 00:25:01;;;;;;;29.77;3.88;;;;;;;;;;5053071;28;20044;-69
2022/01/22 00:27:27;;;;;;;18.35;3.40;;;7.20;99.90;;;;;;5053092;28;20087;-69
2022/01/22 00:29:53;;;;;;;24.55;3.90;;;7.30;99.90;;;;;;5056730;28;20036;-69
2022/01/22 00:32:19;;;;;;;29.10;4.47;;;7.20;99.90;;;;;;5057180;28;20036;-69
2022/01/22 00:34:45;;;;;;;16.20;3.53;;;7.00;99.90;;;;;;5056985;28;20123;-69
2022/01/22 00:37:11;;;;;;;20.77;3.33;;;7.20;99.90;;;;;;5056989;28;20117;-70
2022/01/22 00:39:36;;;;;;;23.25;3.67;;;7.30;99.90;;;;;;5056678;28;20044;-72
2022/01/22 00:42:09;;;;;;;18.70;3.00;;;7.10;99.90;;;;;;5057301;28;20476;-69
2022/01/22 00:44:34;;;;;;;14.32;3.13;;;7.10;99.90;;;;;;5056893;28;20486;-69
2022/01/22 00:47:00;;;;;;;16.25;2.70;;;7.00;99.90;;;;;;5057003;28;20043;-69
2022/01/22 00:49:26;;;;;;;17.90;4.57;;;;;;;;;;5074487;28;20036;-69
2022/01/22 00:51:52;;;;;;;18.98;3.45;;;7.10;99.90;;;;;;5056811;28;20033;-69
2022/01/22 00:54:17;;;;;;;21.63;4.50;;;7.10;99.90;;;;;;5056704;28;20391;-69
2022/01/22 00:56:43;;;;;;;17.83;4.75;;;;;;;;;;5056795;28;20032;-69
2022/01/22 00:59:09;;;;;;;22.67;5.28;;;7.20;99.90;;;;;;5056592;28;20036;-69
2022/01/22 01:01:34;;;;;;;23.90;4.40;;;7.20;99.90;;;;;;5074579;28;20075;-69
2022/01/22 01:04:02;;;;;;;16.00;3.08;;;7.10;99.90;;;;;;5056388;28;20086;-69
2022/01/22 01:06:28;;;;;;;24.23;4.50;;;7.00;99.90;;;;;;5056545;28;20044;-70
2022/01/22 01:08:54;;;;;;;24.02;3.60;;;7.10;99.90;;;;;;5074176;28;20149;-73
2022/01/22 01:11:22;;;;;;;25.10;3.05;;;7.00;99.90;;;;;;5074678;28;20032;-74
2022/01/22 01:13:56;;;;;;;28.23;4.40;;;7.10;99.90;;;;;;5056299;28;20033;-72
2022/01/22 01:33:44;;;;;;;21.33;3.05;;;;;;;;;;5055937;28;20098;-69
2022/01/22 01:35:51;;;;;;;23.80;3.78;;;6.90;99.90;;;;;;5053971;28;20498;-70
2022/01/22 01:38:20;;;;;;;20.45;3.20;;;7.00;99.90;;;;;;5073938;28;20041;-69
2022/01/22 01:40:54;;;;;;;20.90;4.45;;;6.90;99.90;;;;;;5054904;28;20044;-69
2022/01/22 01:43:26;;;;;;;23.65;4.43;;;;;;;;;;5055756;28;20048;-71
2022/01/22 01:45:52;;;;;;;21.45;3.97;;;6.70;99.90;;;;;;5055746;28;20051;-72
2022/01/22 01:48:23;;;;;;;15.35;3.17;;;6.90;99.90;;;;;;5055673;28;20414;-69
2022/01/22 01:50:49;;;;;;;17.83;2.45;;;;;;;;;;5055501;28;20047;-70
2022/01/22 01:53:26;;;;;;;15.32;2.78;;;6.90;99.90;;;;;;5055621;28;20040;-70
2022/01/22 01:58:25;;;;;;;12.77;2.65;;;6.90;99.90;;;;;;5055724;28;20048;-69
2022/01/22 02:00:51;;;;;;;7.65;1.92;;;6.90;99.90;;;;;;5055225;28;20047;-72
2022/01/22 02:03:17;;;;;;;13.30;2.53;;;6.90;99.90;;;;;;5055531;28;20037;-71
2022/01/22 02:05:43;;;;;;;13.68;3.05;;;6.80;99.90;;;;;;5055349;28;20421;-73
2022/01/22 02:08:10;;;;;;;13.43;3.08;;;7.00;99.90;;;;;;5055226;28;20044;-72
2022/01/22 02:10:40;;;;;;;11.02;1.75;;;7.10;99.90;;;;;;5038486;28;20032;-72
2022/01/22 02:24:05;;;;;;;10.98;2.17;;;;;;;;;;5054956;28;20090;-69
2022/01/22 02:26:30;;;;;;;12.18;3.58;;;7.00;99.90;;;;;;5055270;28;20421;-70
2022/01/22 02:28:56;;;;;;;54.28;5.57;;;6.90;99.90;;;;;;5054712;28;20036;-73
2022/01/22 02:31:48;;;;;;;11.10;2.30;;;6.80;99.90;;;;;;5054773;28;20068;-69
2022/01/22 02:34:26;;;;;;;11.50;2.53;;;6.80;99.90;;;;;;5054343;28;20047;-69
2022/01/22 02:37:03;;;;;;;14.57;2.35;;;;;;;;;;5055055;28;20044;-69
2022/01/22 02:39:40;;;;;;;23.00;3.25;;;6.90;99.90;;;;;;5054448;28;20044;-69
2022/01/22 02:42:06;;;;;;;10.63;2.80;;;6.90;99.90;;;;;;5054672;28;20080;-69
2022/01/22 02:44:34;;;;;;;13.00;2.65;;;6.90;99.90;;;;;;5038081;28;20041;-69
2022/01/22 02:47:05;;;;;;;15.30;2.70;;;7.00;99.90;;;;;;5054598;28;20047;-69
2022/01/22 02:49:31;;;;;;;10.40;2.40;;;7.00;99.90;;;;;;5054280;28;20037;-69
2022/01/22 02:52:09;;;;;;;15.57;3.40;;;6.80;99.90;;;;;;5053521;28;20383;-69
2022/01/22 02:54:35;;;;;;;10.80;3.15;;;6.90;99.90;;;;;;5054583;28;20486;-69
2022/01/22 02:57:01;;;;;;;18.25;4.25;;;6.70;99.90;;;;;;5037731;28;20101;-69
2022/01/22 02:59:27;;;;;;;7.05;3.30;;;6.90;99.90;;;;;;5054120;28;20076;-69
2022/01/22 03:01:53;;;;;;;8.90;3.20;;;6.90;99.90;;;;;;5054592;28;20041;-69
2022/01/22 03:04:19;;;;;;;10.43;3.00;;;6.90;99.90;;;;;;5054194;28;20041;-69
2022/01/22 03:06:46;;;;;;;9.45;2.72;;;6.80;99.90;;;;;;5037917;28;20383;-70
2022/01/22 03:09:15;;;;;;;15.07;4.38;;;6.90;99.90;;;;;;5053811;28;20143;-69
2022/01/22 03:11:57;;;;;;;12.00;4.03;;;6.90;99.90;;;;;;5054344;28;20556;-70
2022/01/22 03:22:18;;;;;;;21.35;4.70;;;6.90;99.90;;;;;;5054013;28;20093;-70
2022/01/22 03:27:31;;;;;;;11.48;3.15;;;6.80;99.90;;;;;;5053853;28;20257;-69
2022/01/22 03:29:58;;;;;;;15.90;3.85;;;6.60;99.90;;;;;;5053549;28;20040;-70
2022/01/22 03:32:27;;;;;;;13.20;3.47;;;;;;;;;;5053807;28;20040;-69
2022/01/22 03:34:56;;;;;;;16.25;4.43;;;6.80;99.90;;;;;;5053524;28;20074;-69
2022/01/22 03:37:24;;;;;;;14.35;2.75;;;6.90;99.90;;;;;;5053654;28;20032;-72
2022/01/22 03:39:49;;;;;;;18.05;4.68;;;6.70;99.90;;;;;;5053339;28;20041;-69
2022/01/22 03:42:15;;;;;;;15.52;4.40;;;6.90;99.90;;;;;;5053539;28;20042;-69
2022/01/22 03:44:41;;;;;;;16.90;3.92;;;6.80;99.90;;;;;;5037102;28;20047;-70
2022/01/22 03:47:06;;;;;;;14.50;2.45;;;6.80;99.90;;;;;;5053484;28;20032;-73
2022/01/22 03:49:32;;;;;;;16.52;2.63;;;6.70;99.90;;;;;;5053061;28;20502;-67
2022/01/22 03:51:58;;;;;;;9.35;2.35;;;6.90;99.90;;;;;;5053406;28;20036;-69
2022/01/22 03:54:24;;;;;;;11.13;2.97;;;6.90;99.90;;;;;;5053406;28;20048;-69
2022/01/22 03:56:51;;;;;;;20.90;3.58;;;;;;;;;;5053342;28;20036;-69
2022/01/22 03:59:17;;;;;;;11.43;4.63;;;6.80;99.90;;;;;;5053059;28;20052;-72
2022/01/22 04:02:16;;;;;;;15.45;4.45;;;;;;;;;;5053543;28;20047;-69
2022/01/22 04:04:47;;;;;;;13.55;3.42;;;6.90;99.90;;;;;;5070870;28;20059;-69
2022/01/22 04:09:43;;;;;;;9.60;2.80;;;;;;;;;;5052942;28;20050;-69
2022/01/22 04:12:17;;;;;;;10.15;2.20;;;6.70;99.90;;;;;;5053301;28;20456;-69
2022/01/22 04:14:48;;;;;;;11.25;3.13;;;6.80;99.90;;;;;;5036532;28;20032;-69
2022/01/22 04:25:11;;;;;;;7.55;2.30;;;6.90;99.90;;;;;;5053163;28;20132;-69
2022/01/22 04:27:37;;;;;;;9.23;2.17;;;6.80;99.90;;;;;;5053314;28;20080;-69
2022/01/22 04:30:04;;;;;;;11.75;2.50;;;6.80;99.90;;;;;;5052976;28;20127;-73
2022/01/22 04:32:31;;;;;;;10.15;2.88;;;6.90;99.90;;;;;;5053565;28;20108;-70
2022/01/22 04:34:57;;;;;;;11.98;3.28;;;6.70;99.90;;;;;;5071003;28;20052;-69
2022/01/22 04:37:24;;;;;;;10.02;2.60;;;6.70;99.90;;;;;;5053484;28;20386;-69
2022/01/22 04:39:50;;;;;;;10.30;2.60;;;6.80;99.90;;;;;;5052958;28;20098;-71
2022/01/22 04:42:17;;;;;;;11.25;3.05;;;6.80;99.90;;;;;;5053235;28;20037;-69
2022/01/22 04:44:54;;;;;;;8.52;2.40;;;;;;;;;;5052890;28;20044;-69
2022/01/22 04:47:31;;;;;;;14.75;3.63;;;6.70;99.90;;;;;;5052929;28;20041;-69
2022/01/22 04:54:57;;;;;;;10.10;2.95;;;6.60;99.90;;;;;;5052900;28;20051;-69
2022/01/22 04:55:27;;;;;;;11.27;2.10;;;6.80;99.90;;;;;;5052742;28;20123;-69
2022/01/22 04:57:52;;;;;;;8.27;2.88;;;6.60;99.90;;;;;;5052826;28;20482;-71
2022/01/22 05:00:18;;;;;;;13.52;1.80;;;6.70;99.90;;;;;;5052377;28;20036;-69
2022/01/22 05:02:44;;;;;;;12.65;2.17;;;6.60;99.90;;;;;;5052764;28;20041;-69
2022/01/22 05:05:09;;;;;;;13.98;3.13;;;6.60;99.90;;;;;;5070916;28;20041;-69
2022/01/22 05:07:35;;;;;;;10.30;1.73;;;6.70;99.90;;;;;;5052740;28;20072;-70
2022/01/22 05:10:02;;;;;;;11.80;1.52;;;6.60;99.90;;;;;;5035818;28;20052;-69
2022/01/22 05:12:28;;;;;;;7.60;1.52;;;;;;;;;;5052788;28;20037;-69
2022/01/22 05:14:53;;;;;;;18.88;2.50;;;6.70;99.90;;;;;;5082066;23;20036;-75
2022/01/22 05:17:20;;;;;;;10.20;1.60;;;6.70;99.90;;;;;;5082955;28;20043;-76
2022/01/22 05:22:52;;;;;;;26.65;3.38;;;6.70;99.90;;;;;;5076810;28;20521;-75
2022/01/22 05:25:08;;;;;;;7.20;1.70;;;6.60;99.90;;;;;;5079035;28;20043;-75
2022/01/22 05:27:49;;;;;;;6.78;1.40;;;6.80;99.90;;;;;;5065347;28;20489;-76
2022/01/22 05:30:48;;;;;;;9.93;2.00;;;6.80;99.90;;;;;;5081253;28;20115;-75
2022/01/22 05:38:33;;;;;;;7.90;2.13;;;6.70;99.90;;;;;;5076418;28;20114;-75
2022/01/22 05:40:59;;;;;;;14.25;2.10;;;6.70;99.90;;;;;;5075963;28;20101;-75
2022/01/22 05:43:25;;;;;;;13.15;2.85;;;6.80;99.90;;;;;;5059564;28;20448;-75
2022/01/22 05:45:51;;;;;;;15.80;3.08;;;6.80;99.90;;;;;;5076406;28;20406;-75
2022/01/22 05:48:17;;;;;;;20.02;2.55;;;6.80;99.90;;;;;;5076093;28;20032;-75
2022/01/22 05:50:50;;;;;;;12.65;2.45;;;6.70;99.90;;;;;;5058966;28;20410;-75
2022/01/22 06:01:06;;;;;;;13.63;2.50;;;6.70;99.90;;;;;;5075911;28;20463;-75
2022/01/22 06:03:32;;;;;;;15.05;2.55;;;6.90;99.90;;;;;;5075963;28;20032;-75
2022/01/22 06:05:58;;;;;;;7.05;1.73;;;;;;;;;;5075800;28;20366;-75
2022/01/22 06:08:29;;;;;;;7.47;1.92;;;6.80;99.90;;;;;;5075653;28;20072;-75
2022/01/22 06:10:56;;;;;;;13.82;4.00;;;6.80;99.90;;;;;;5075446;28;20036;-75
2022/01/22 06:13:29;;;;;;;11.95;2.75;;;6.80;99.90;;;;;;5075968;28;20470;-75
2022/01/22 06:15:55;;;;;;;10.13;2.15;;;;;;;;;;5075800;28;20119;-75
2022/01/22 06:18:21;;;;;;;7.38;1.65;;;;;;;;;;5075693;28;20508;-76
2022/01/22 06:20:47;;;;;;;10.45;2.00;;;6.80;99.90;;;;;;5075378;28;20127;-76
2022/01/22 06:23:12;;;;;;;10.85;2.20;;;6.60;99.90;;;;;;5075828;28;20040;-75
2022/01/22 06:25:38;;;;;;;7.28;1.83;;;6.70;99.90;;;;;;5058525;28;20032;-75
2022/01/22 06:28:04;;;;;;;9.43;2.47;;;6.60;99.90;;;;;;5058895;28;20086;-75
2022/01/22 06:30:30;;;;;;;8.25;2.92;;;;;;;;;;5058537;28;20028;-75
2022/01/22 06:32:56;;;;;;;10.80;3.20;;;;;;;;;;5075401;28;20043;-75
2022/01/22 06:35:22;;;;;;;16.65;3.42;;;;;;;;;;5075044;28;20028;-75
2022/01/22 06:37:48;;;;;;;12.60;3.03;;;;;;;;;;5075183;28;20123;-75
2022/01/22 06:42:42;;;;;;;10.90;2.33;;;6.60;99.90;;;;;;5075088;28;20520;-75
2022/01/22 06:45:08;;;;;;;4.40;2.05;;;6.60;99.90;;;;;;5074980;28;20162;-76
2022/01/22 06:47:34;;;;;;;8.52;2.30;;;6.60;99.90;;;;;;5050517;28;20032;-75
2022/01/22 06:50:00;;;;;;;8.75;2.10;;;;;;;;;;5054739;28;20047;-75
2022/01/22 06:52:26;;;;;;;9.65;2.55;;;6.40;99.90;;;;;;5038352;28;20508;-75
2022/01/22 06:54:52;;;;;;;6.20;1.42;;;6.50;99.90;;;;;;5038228;28;20033;-75
2022/01/22 06:57:18;;;;;;;8.75;1.67;;;6.50;99.90;;;;;;5054850;28;20115;-75
2022/01/22 06:59:43;;;;;;;5.18;1.50;;;6.40;99.90;;;;;;5054415;28;20033;-75
2022/01/22 07:02:09;;;;;;;17.13;2.80;;;6.40;99.90;;;;;;5038167;28;20051;-75
2022/01/22 07:04:37;;;;;;;5.82;1.60;;;6.40;99.90;;;;;;5054346;28;20036;-75
2022/01/22 07:07:09;;;;;;;4.85;1.40;;;6.40;99.90;;;;;;5054653;28;20044;-75
2022/01/22 07:09:36;;;;;;;14.88;1.40;;;6.50;99.90;;;;;;5054213;28;20418;-75
2022/01/22 07:12:02;;;;;;;7.28;2.03;;;;;;;;;;5054909;28;20375;-76
2022/01/22 07:14:28;;;;;;;7.07;1.70;;;;;;;;;;5054735;28;20463;-75
2022/01/22 07:16:54;;;;;;;5.93;1.77;;;;;;;;;;5054449;28;20072;-75
2022/01/22 07:19:20;;;;;;;12.40;2.25;;;6.40;99.90;;;;;;5037474;28;20391;-75
2022/01/22 07:22:02;;;;;;;14.60;2.65;;;6.50;99.90;;;;;;5054666;28;20669;-75
2022/01/22 07:24:32;;;;;;;6.88;2.70;;;6.40;99.90;;;;;;5054536;28;20043;-76
2022/01/22 07:26:58;;;;;;;12.73;3.70;;;;;;;;;;5037810;28;20037;-75
2022/01/22 07:29:24;;;;;;;12.50;2.05;;;6.50;99.90;;;;;;5037262;28;20040;-75
2022/01/22 07:31:52;;;;;;;5.82;2.10;;;6.60;99.90;;;;;;5037519;28;20123;-75
2022/01/22 07:34:17;;;;;;;13.55;2.88;;;6.50;99.90;;;;;;5054093;28;20044;-75
2022/01/22 07:36:43;;;;;;;4.38;1.80;;;6.50;99.90;;;;;;5054457;28;20380;-74
2022/01/22 07:39:09;;;;;;;12.82;2.53;;;6.40;99.90;;;;;;5053487;28;20044;-75
2022/01/22 07:41:34;;;;;;;10.02;1.77;;;6.60;99.90;;;;;;5037322;28;20048;-75
2022/01/22 07:44:00;;;;;;;6.10;1.65;;;6.40;99.90;;;;;;5037170;28;20043;-75
2022/01/22 07:46:27;;;;;;;9.75;1.80;;;;;;;;;;5053886;28;20083;-75
2022/01/22 07:48:53;;;;;;;14.60;1.63;;;6.50;99.90;;;;;;5053723;28;20148;-75
2022/01/22 07:51:18;;;;;;;6.03;1.73;;;6.40;99.90;;;;;;5053814;28;20157;-75
2022/01/22 07:53:45;;;;;;;9.13;1.67;;;6.60;99.90;;;;;;5054183;28;20547;-75
2022/01/22 07:56:12;;;;;;;10.23;2.13;;;6.40;99.90;;;;;;5053862;28;20033;-75
2022/01/22 07:58:38;;;;;;;11.30;2.30;;;;;;;;;;5054074;28;20055;-75
2022/01/22 08:01:03;;;;;;;8.02;1.52;;;6.50;99.90;;;;;;5053500;28;20076;-75
2022/01/22 08:03:29;;;;;;;14.45;2.20;;;6.50;99.90;;;;;;5071884;28;20075;-75
2022/01/22 08:05:55;;;;;;;12.73;2.10;;;6.50;99.90;;;;;;5053605;28;20036;-75
2022/01/22 08:08:21;;;;;;;14.15;2.25;;;6.50;99.90;;;;;;5053648;28;20037;-75
2022/01/22 08:10:46;;;;;;;8.93;2.10;;;;;;;;;;5036763;28;20036;-75
2022/01/22 08:13:13;;;;;;;14.13;2.83;;;;;;;;;;5053821;28;20037;-75
2022/01/22 08:15:38;;;;;;;9.23;2.58;;;6.40;99.90;;;;;;5053364;28;20032;-75
2022/01/22 08:18:06;;;;;;;17.75;2.92;;;6.40;99.90;;;;;;5053551;28;20082;-75
2022/01/22 08:20:33;;;;;;;12.15;2.85;;;;;;;;;;5036590;28;20044;-75
2022/01/22 08:22:59;;;;;;;10.75;2.38;;;6.50;99.90;;;;;;5053565;28;20170;-75
2022/01/22 08:25:25;;;;;;;11.93;2.60;;;;;;;;;;5053435;28;20032;-74
2022/01/22 08:30:25;;;;;;;13.07;3.13;;;6.50;99.90;;;;;;5053554;28;20087;-75
2022/01/22 08:38:07;;;;;;;12.60;3.97;;;;;;;;;;5053535;28;20580;-75
2022/01/22 08:40:33;;;;;;;19.15;3.83;;;6.60;99.90;;;;;;5036543;28;20072;-75
2022/01/22 08:42:59;;;;;;;10.20;2.67;;;;;;;;;;5036834;28;20133;-75
2022/01/22 08:45:24;;;;;;;12.10;2.63;;;6.70;99.90;;;;;;5053424;28;20040;-75
2022/01/22 08:47:50;;;;;;;20.70;2.50;;;6.80;99.90;;;;;;5053403;28;20452;-75
2022/01/22 08:50:18;;;;;;;18.23;2.65;;;6.70;99.90;;;;;;5054380;28;20513;-75
2022/01/22 08:52:43;;;;;;;7.78;2.00;;;6.70;99.90;;;;;;5040779;28;20398;-75
2022/01/22 08:55:10;;;;;;;14.88;2.50;;;;;;;;;;5040520;28;20041;-77
2022/01/22 08:57:37;;;;;;;8.05;1.90;;;6.80;99.90;;;;;;5041057;28;20068;-77
2022/01/22 09:00:05;;;;;;;10.40;2.00;;;6.80;99.90;;;;;;5041835;28;20098;-76
2022/01/22 09:02:30;;;;;;;7.70;2.50;;;6.80;99.90;;;;;;5045276;28;20047;-75
2022/01/22 09:04:56;;;;;;;9.68;2.45;;;;;;;;;;5073780;28;20036;-75
2022/01/22 09:07:22;;;;;;;21.23;3.47;;;6.70;99.90;;;;;;5073936;28;20139;-75
2022/01/22 09:09:48;;;;;;;20.13;2.72;;;;;;;;;;5056664;28;20040;-75
2022/01/22 09:12:16;;;;;;;16.13;2.55;;;;;;;;;;5073600;28;20096;-75
2022/01/22 09:14:42;;;;;;;12.30;3.03;;;;;;;;;;5063156;28;20037;-75
2022/01/22 09:17:08;;;;;;;11.85;2.25;;;6.80;99.90;;;;;;5058526;28;20047;-75
2022/01/22 09:19:35;;;;;;;13.63;2.90;;;;;;;;;;5061652;28;20040;-75
2022/01/22 09:22:06;;;;;;;10.35;2.55;;;6.80;99.90;;;;;;5065705;28;20375;-75
2022/01/22 09:24:32;;;;;;;10.73;2.40;;;6.90;99.90;;;;;;5056873;28;20040;-75
2022/01/22 09:26:59;;;;;;;13.60;2.65;;;6.70;99.90;;;;;;5056248;28;20168;-75
2022/01/22 09:29:26;;;;;;;8.63;2.80;;;;;;;;;;5068974;28;20040;-75
2022/01/22 09:31:52;;;;;;;18.88;3.38;;;6.90;99.90;;;;;;5040811;28;20036;-76
2022/01/22 09:34:17;;;;;;;14.73;2.38;;;6.90;99.90;;;;;;5058571;28;20036;-75
2022/01/22 09:36:43;;;;;;;9.35;2.50;;;7.00;99.90;;;;;;5055183;28;20598;-75
2022/01/22 09:39:09;;;;;;;12.90;2.40;;;7.00;99.90;;;;;;5045696;28;20040;-75
2022/01/22 09:41:35;;;;;;;12.85;2.92;;;;;;;;;;5066306;28;20118;-75
2022/01/22 09:44:01;;;;;;;14.23;2.30;;;7.10;99.90;;;;;;5068489;28;20048;-74
2022/01/22 09:46:28;;;;;;;11.13;2.42;;;7.00;99.90;;;;;;5075956;28;20047;-75
2022/01/22 09:48:55;;;;;;;13.25;2.38;;;6.90;99.90;;;;;;5075330;28;20151;-75
2022/01/22 09:51:21;;;;;;;9.50;2.25;;;7.00;99.90;;;;;;5076159;28;20060;-75
2022/01/22 09:53:47;;;;;;;10.63;2.58;;;7.00;99.90;;;;;;5049782;28;20129;-75
2022/01/22 09:56:17;;;;;;;13.65;2.60;;;7.20;99.90;;;;;;5064821;28;20036;-75
2022/01/22 09:58:43;;;;;;;12.88;2.65;;;7.10;99.90;;;;;;5065920;28;20066;-76
2022/01/22 10:01:19;;;;;;;11.43;2.22;;;7.20;99.90;;;;;;5047648;28;20119;-75
2022/01/22 10:03:45;;;;;;;7.50;1.67;;;;;;;;;;5047685;28;20044;-76
2022/01/22 10:06:16;;;;;;;13.23;2.13;;;7.20;99.90;;;;;;5065170;28;20066;-75
2022/01/22 10:08:41;;;;;;;7.07;1.55;;;7.10;99.90;;;;;;5065791;28;20040;-75
2022/01/22 10:11:19;;;;;;;12.60;1.83;;;7.00;99.90;;;;;;5064561;28;20032;-74
2022/01/22 10:13:52;;;;;;;11.00;1.85;;;7.10;99.90;;;;;;5063614;28;20041;-75
2022/01/22 10:16:20;;;;;;;9.90;1.90;;;7.30;99.90;;;;;;5038810;28;20047;-75
2022/01/22 10:19:06;;;;;;;12.23;3.00;;;7.10;99.90;;;;;;5038966;28;20500;-75
2022/01/22 10:21:33;;;;;;;10.00;1.90;;;7.40;99.90;;;;;;5056384;28;20047;-76
2022/01/22 10:24:47;;;;;;;8.82;1.98;;;7.20;99.90;;;;;;5055823;28;20086;-75
2022/01/22 10:27:38;;;;;;;14.63;3.28;;;7.30;99.90;;;;;;5055720;28;20044;-75
2022/01/22 10:30:12;;;;;;;9.40;2.78;;;7.20;99.90;;;;;;5055622;28;20044;-76
2022/01/22 10:35:43;;;;;;;18.95;3.10;;;7.10;99.90;;;;;;4955771;28;20078;-76
2022/01/22 10:38:10;;;;;;;15.73;3.30;;;7.30;99.90;;;;;;4956180;28;20063;-75
2022/01/22 10:40:38;;;;;;;9.70;3.08;;;7.20;99.90;;;;;;4986355;28;20045;-76
2022/01/22 10:43:28;;;;;;;17.73;3.20;;;7.30;99.90;;;;;;5038441;28;20046;-76
2022/01/22 10:46:19;;;;;;;16.55;3.70;;;7.30;99.90;;;;;;5038712;28;20071;-75
2022/01/22 10:49:00;;;;;;;15.52;4.13;;;7.40;99.90;;;;;;5051558;28;20053;-75
2022/01/22 10:51:28;;;;;;;13.93;3.88;;;7.20;99.90;;;;;;5055083;28;20273;-75
2022/01/22 10:53:59;;;;;;;12.73;4.45;;;7.10;99.90;;;;;;5055079;28;20037;-75
2022/01/22 10:56:28;;;;;;;9.38;3.15;;;7.00;99.90;;;;;;5055559;28;20040;-76
2022/01/22 10:59:01;;;;;;;19.98;4.30;;;7.30;99.90;;;;;;5037874;28;20090;-75
2022/01/22 11:01:45;;;;;;;13.50;4.50;;;7.20;99.90;;;;;;5055780;28;20046;-75
2022/01/22 11:04:13;;;;;;;9.48;4.50;;;7.30;99.90;;;;;;5074693;28;20282;-76
2022/01/22 11:06:40;;;;;;;22.48;5.65;;;7.30;99.90;;;;;;5074922;28;20440;-76
2022/01/22 11:09:07;;;;;;;16.80;7.28;;;7.30;99.90;;;;;;5057779;28;20048;-76
2022/01/22 11:11:39;;;;;;;24.00;5.65;;;7.20;99.90;;;;;;5074696;28;20040;-76
2022/01/22 11:14:08;;;;;;;16.38;5.72;;;7.30;99.90;;;;;;5073477;28;20036;-76
2022/01/22 11:16:35;;;;;;;18.90;4.70;;;7.30;99.90;;;;;;5107967;23;20390;-70
2022/01/22 11:19:02;;;;;;;16.33;4.60;;;7.10;99.90;;;;;;5090169;28;20051;-68
2022/01/22 11:21:30;;;;;;;15.15;3.85;;;7.30;99.90;;;;;;5090748;28;20515;-69
2022/01/22 11:23:55;;;;;;;11.02;2.70;;;7.30;99.90;;;;;;5073940;28;20063;-72
2022/01/22 11:26:21;;;;;;;10.15;2.70;;;7.20;99.90;;;;;;5090968;28;20074;-69
2022/01/22 11:28:51;;;;;;;13.55;2.40;;;;;;;;;;5090624;28;20044;-69
2022/01/22 11:31:18;;;;;;;11.23;2.28;;;7.30;99.90;;;;;;5073758;28;20047;-69
2022/01/22 11:33:46;;;;;;;10.35;3.25;;;7.40;99.90;;;;;;5090665;28;20124;-69
2022/01/22 11:36:21;;;;;;;10.98;2.42;;;7.50;99.90;;;;;;5090807;28;20071;-69
2022/01/22 11:38:56;;;;;;;8.20;2.20;;;7.50;99.90;;;;;;5090854;28;20418;-70
2022/01/22 11:41:23;;;;;;;16.05;2.67;;;7.50;99.90;;;;;;5090462;28;20059;-69
2022/01/22 11:44:11;;;;;;;8.32;1.70;;;7.50;99.90;;;;;;5090334;28;20554;-72
2022/01/22 11:46:58;;;;;;;10.18;2.28;;;7.40;99.90;;;;;;5073722;28;20299;-69
2022/01/22 11:49:27;;;;;;;10.07;2.00;;;7.60;99.90;;;;;;5074505;28;20040;-69
2022/01/22 11:52:14;;;;;;;9.68;2.60;;;7.30;99.90;;;;;;5070177;28;20036;-72
2022/01/22 11:55:01;;;;;;;12.23;2.33;;;7.50;99.90;;;;;;5069622;28;20036;-69
2022/01/22 11:57:31;;;;;;;11.35;2.30;;;7.50;99.90;;;;;;5068532;28;20047;-69
2022/01/22 12:00:23;;;;;;;10.02;2.22;;;7.50;99.90;;;;;;5079486;28;20070;-69
2022/01/22 12:03:07;;;;;;;10.27;3.08;;;7.50;99.90;;;;;;5074408;28;20044;-69
2022/01/22 12:05:34;;;;;;;9.05;2.53;;;7.60;99.90;;;;;;5066516;28;20056;-70
2022/01/22 12:08:01;;;;;;;7.25;2.10;;;7.50;99.90;;;;;;5066663;28;20044;-71
2022/01/22 12:10:38;;;;;;;14.82;2.35;;;7.60;99.90;;;;;;5066524;28;20041;-71
2022/01/22 12:16:09;;;;;;;8.10;1.48;;;7.60;99.90;;;;;;5066037;28;20506;-69
2022/01/22 12:18:38;;;;;;;10.18;1.60;;;;;;;;;;5049873;28;20078;-72
2022/01/22 12:23:32;;;;;;;9.77;2.28;;;7.60;99.90;;;;;;5066433;28;20057;-70
2022/01/22 12:26:02;;;;;;;7.07;1.48;;;7.60;99.90;;;;;;5070601;28;20520;-69
2022/01/22 12:28:44;;;;;;;8.88;1.85;;;7.60;99.90;;;;;;5070689;28;20041;-69
2022/01/22 12:31:19;;;;;;;11.05;1.92;;;7.60;99.90;;;;;;5054024;28;20463;-69
2022/01/22 12:33:53;;;;;;;6.80;1.17;;;7.60;99.90;;;;;;5070499;28;20040;-69
2022/01/22 12:36:34;;;;;;;9.38;2.13;;;7.60;99.90;;;;;;5070596;28;20093;-71
2022/01/22 12:39:09;;;;;;;5.90;1.48;;;7.50;99.90;;;;;;5071867;28;20051;-71
2022/01/22 12:41:47;;;;;;;6.32;1.38;;;7.70;99.90;;;;;;5070302;28;20040;-70
2022/01/22 12:44:27;;;;;;;6.90;1.60;;;7.50;99.90;;;;;;5053568;28;20078;-70
2022/01/22 12:46:56;;;;;;;7.00;1.92;;;7.60;99.90;;;;;;5070182;28;20055;-72
2022/01/22 12:49:23;;;;;;;9.63;1.35;;;7.50;99.90;;;;;;5069654;28;20767;-68
2022/01/22 12:52:04;;;;;;;8.00;2.58;;;7.50;99.90;;;;;;5070065;28;20502;-73
2022/01/22 12:54:32;;;;;;;6.53;2.17;;;7.40;99.90;;;;;;5070000;28;20032;-70
2022/01/22 12:57:08;;;;;;;21.08;4.95;;;7.50;99.90;;;;;;5069721;28;20045;-67
2022/01/22 13:00:01;;;;;;;12.27;4.45;;;7.60;99.90;;;;;;5070013;28;20044;-70
2022/01/22 13:02:37;;;;;;;14.50;3.00;;;7.50;99.90;;;;;;5070541;28;20387;-69
2022/01/22 13:05:04;;;;;;;11.00;2.00;;;7.40;99.90;;;;;;5071311;28;20516;-71
2022/01/22 13:07:41;;;;;;;8.60;2.15;;;7.40;99.90;;;;;;5071704;28;20119;-69
2022/01/22 13:10:08;;;;;;;5.80;1.55;;;7.50;99.90;;;;;;5077518;28;20200;-70
2022/01/22 13:12:36;;;;;;;15.25;4.43;;;7.40;99.90;;;;;;5081751;28;20040;-69
2022/01/22 13:15:02;;;;;;;12.25;4.53;;;7.50;99.90;;;;;;5090140;28;20367;-69
2022/01/22 13:17:30;;;;;;;8.45;2.33;;;7.40;99.90;;;;;;5093291;28;20052;-69
2022/01/22 13:19:56;;;;;;;13.75;5.35;;;7.40;99.90;;;;;;5092879;28;20050;-69
2022/01/22 13:22:36;;;;;;;10.93;3.72;;;7.40;99.90;;;;;;5073007;28;20041;-69
2022/01/22 13:25:20;;;;;;;13.65;2.33;;;7.40;99.90;;;;;;5072917;28;20102;-69
2022/01/22 13:28:10;;;;;;;4.85;1.33;;;7.50;99.90;;;;;;5072522;28;20557;-69
2022/01/22 13:30:43;;;;;;;6.00;1.60;;;7.50;99.90;;;;;;5072300;28;20087;-69
2022/01/22 13:33:33;;;;;;;10.77;1.65;;;7.60;99.90;;;;;;5055947;28;20119;-69
2022/01/22 13:36:14;;;;;;;11.85;1.90;;;7.50;99.90;;;;;;5071336;28;20043;-69
2022/01/22 13:49:44;;;;;;;8.65;1.50;;;7.40;99.90;;;;;;5072085;28;20051;-73
2022/01/22 13:52:16;;;;;;;7.28;1.10;;;7.30;99.90;;;;;;5072495;28;20042;-69
2022/01/22 13:54:44;;;;;;;7.13;1.40;;;7.10;99.90;;;;;;5072294;28;20051;-69
2022/01/22 13:57:24;;;;;;;7.20;1.80;;;7.30;99.90;;;;;;5066672;28;20041;-69
2022/01/22 13:59:53;;;;;;;10.73;1.52;;;7.20;99.90;;;;;;5072059;28;20040;-69
2022/01/22 14:05:07;;;;;;;5.68;1.50;;;7.20;99.90;;;;;;5072201;28;20051;-68
2022/01/22 14:07:40;;;;;;;7.03;2.58;;;7.30;99.90;;;;;;5076049;28;20125;-72
2022/01/22 14:10:12;;;;;;;11.13;1.92;;;7.30;99.90;;;;;;5083558;28;20032;-68
2022/01/22 14:12:47;;;;;;;8.05;1.48;;;7.30;99.90;;;;;;5081955;28;20037;-70
2022/01/22 14:15:27;;;;;;;7.40;2.80;;;7.30;99.90;;;;;;5081269;28;20037;-69
2022/01/22 14:20:35;;;;;;;10.18;1.60;;;7.30;99.90;;;;;;5078742;28;20139;-71
2022/01/22 14:23:09;;;;;;;9.00;1.63;;;7.20;99.90;;;;;;5086231;28;20051;-69
2022/01/22 14:25:53;;;;;;;;;;;7.30;99.90;;;;;;5092394;28;20550;-69
2022/01/22 14:28:19;;;;;;;10.45;2.20;;;7.10;99.90;;;;;;5091876;28;19927;-69
2022/01/22 14:30:47;;;;;;;12.70;3.53;;;7.10;99.90;;;;;;5087618;28;20031;-73
2022/01/22 14:33:15;;;;;;;12.27;3.30;;;7.20;99.90;;;;;;5079584;28;20028;-72
2022/01/22 14:35:42;;;;;;;10.93;2.40;;;7.10;99.90;;;;;;5077194;28;20040;-72
2022/01/22 14:38:34;;;;;;;20.60;3.92;;;7.00;99.90;;;;;;5083061;28;20049;-69
2022/01/22 14:47:02;;;;;;;6.32;1.70;;;6.90;99.90;;;;;;5068189;28;20056;-73
2022/01/22 14:49:31;;;;;;;7.97;2.80;;;7.10;99.90;;;;;;5081662;28;20476;-71
2022/01/22 14:51:58;;;;;;;10.38;3.05;;;7.00;99.90;;;;;;5079919;28;20040;-73
2022/01/22 14:54:24;;;;;;;9.73;2.55;;;7.10;99.90;;;;;;5081663;28;20119;-74
2022/01/22 14:56:50;;;;;;;9.85;3.10;;;6.90;99.90;;;;;;5080115;28;20408;-70
2022/01/22 14:59:17;;;;;;;9.68;3.63;;;7.10;99.90;;;;;;5082128;28;20115;-69
2022/01/22 15:01:43;;;;;;;11.70;3.22;;;7.00;99.90;;;;;;5079591;28;20040;-68
2022/01/22 15:04:08;;;;;;;8.48;3.05;;;6.90;99.90;;;;;;5079439;28;20044;-71
2022/01/22 15:06:34;;;;;;;10.00;2.20;;;6.90;99.90;;;;;;5077600;28;20036;-71
2022/01/22 15:08:59;;;;;;;13.20;3.50;;;6.80;99.90;;;;;;5085684;28;20119;-68